Los Angeles, CA (90008)

4:45 AM PST on February 12, 2016 (GMT -0800)
View Park-Windsor Hills | | Change Station
CLOSE
Current Station
Personal Weather Station
Location: Los Angeles, CA
Elevation: 328 ft
Nearby Weather Stations
Active Advisory: High Surf Advisory

Elev 328 ft 34.00 °N, 118.35 °W | Updated 13 minutes ago

Clear
Clear
61.4 °F
Feels Like 61.4 °F
N
1.0
Wind Variable Wind from NNE
Gusts 2.0 mph

Today
High -- | Low -- °F
--% Chance of Precip.
Yesterday
High -- | Low -- °F
Precip. -- in
Pressure 30.07 in
Visibility 10.0 miles
Clouds Few 2000 ft
Dew Point 39 °F
Humidity 43%
Rainfall 0.00 in
Snow Depth Not available.
6:41 AM 5:34 PM
Waxing Crescent, 20% visible
METAR KLAX 121153Z 11003KT 10SM FEW020 14/03 A3008 RMK AO2 SLP182 T01440033 10183 20139 58010
Pressure 30.07 in
Visibility 10.0 miles
Clouds Few 2000 ft
Dew Point 39 °F
Humidity 43%
Rainfall 0.00 in
Snow Depth Not available.
6:41 AM 5:34 PM
Waxing Crescent, 20% visible
METAR KLAX 121153Z 11003KT 10SM FEW020 14/03 A3008 RMK AO2 SLP182 T01440033 10183 20139 58010

10-Day Weather Forecast

Almanac

Astronomy

Feb. 12, 2016 Rise Set
Actual Time
Civil Twilight
Nautical Twilight
Astronomical Twilight
Moon
Length of Visible Light
Length of Day
Tomorrow will be .
, % of the Moon is Illuminated

Today's Extremes

State Highs State Lows

Community

WunderPhotos

Upload Photos

1,892,300 photos uploaded!

WunderBlog® & News

Nearby

Air Quality

  Air Quality AQ Index Pollutant
Not available.

Snow Depth

Station Depth Elevation

Earthquake Activity

City Distance Mag. Time & Date
Minimum magnitude displayed is 2.5.

Coastal Water Temperatures

Place Temperature

Stations

Nearby Weather Stations

Station Location Temp. Windchill Dew Point Humidity Wind Precip. Elev Updated Type
                   

Watches & Warnings

High Surf Advisory
Issued: 3:01 AM PST Feb. 12, 2016 – National Weather Service

... High surf advisory remains in effect from 9 am this morning to
noon PST Sunday...

* surf and timing... surf will build to 4 to 8 feet today... then
peak at 5 to 10 feet tonight through Saturday night. Surf will
begin to subside slowly Sunday.

* Impacts... the large surf may cause minor beach erosion and
strong rip currents that will create a risk of ocean drowning.
Sneaker waves can suddenly overrun previously dry beaches and
jetties around the time of high tide.

* Locations... surf will be highest on exposed west and northwest
facing beaches. Local sets to 12 feet are possible near
Ventura Harbor.

Precautionary/preparedness actions...

A high surf advisory means that high surf and rip currents will
make swimming and rock jetties dangerous.

Remember... if caught in a rip current... swim parallel to shore
until you are free of the powerful current. Always swim near a
lifeguard.